sensor_id;sensor_type;location;lat;lon;timestamp;P1;durP1;ratioP1;P2;durP2;ratioP2
5175;SDS011;2607;50.934;6.934;2023-08-21T00:01:14;8.00;;;6.50;;
5175;SDS011;2607;50.934;6.934;2023-08-21T00:03:40;8.20;;;7.00;;
5175;SDS011;2607;50.934;6.934;2023-08-21T00:06:05;12.37;;;6.90;;
5175;SDS011;2607;50.934;6.934;2023-08-21T00:08:31;7.43;;;6.73;;
5175;SDS011;2607;50.934;6.934;2023-08-21T00:10:56;10.13;;;7.00;;
5175;SDS011;2607;50.934;6.934;2023-08-21T00:13:22;7.40;;;6.67;;
5175;SDS011;2607;50.934;6.934;2023-08-21T00:15:48;10.70;;;6.63;;
5175;SDS011;2607;50.934;6.934;2023-08-21T00:18:13;8.00;;;6.93;;
5175;SDS011;2607;50.934;6.934;2023-08-21T00:20:39;11.03;;;7.60;;
5175;SDS011;2607;50.934;6.934;2023-08-21T00:23:06;7.47;;;6.70;;
5175;SDS011;2607;50.934;6.934;2023-08-21T00:25:33;9.30;;;6.53;;
5175;SDS011;2607;50.934;6.934;2023-08-21T00:27:59;10.20;;;7.60;;
5175;SDS011;2607;50.934;6.934;2023-08-21T00:30:25;9.47;;;7.00;;
5175;SDS011;2607;50.934;6.934;2023-08-21T00:32:50;7.63;;;6.90;;
5175;SDS011;2607;50.934;6.934;2023-08-21T00:35:16;7.73;;;7.03;;
5175;SDS011;2607;50.934;6.934;2023-08-21T00:37:41;8.50;;;7.60;;
5175;SDS011;2607;50.934;6.934;2023-08-21T00:40:07;7.40;;;6.73;;
5175;SDS011;2607;50.934;6.934;2023-08-21T00:42:33;7.70;;;6.83;;
5175;SDS011;2607;50.934;6.934;2023-08-21T00:44:58;8.03;;;7.10;;
5175;SDS011;2607;50.934;6.934;2023-08-21T00:47:24;8.17;;;7.37;;
5175;SDS011;2607;50.934;6.934;2023-08-21T00:49:50;9.70;;;7.20;;
5175;SDS011;2607;50.934;6.934;2023-08-21T00:52:16;8.07;;;6.63;;
5175;SDS011;2607;50.934;6.934;2023-08-21T00:54:42;8.10;;;7.10;;
5175;SDS011;2607;50.934;6.934;2023-08-21T00:57:08;8.77;;;7.20;;
5175;SDS011;2607;50.934;6.934;2023-08-21T00:59:35;9.40;;;7.33;;
5175;SDS011;2607;50.934;6.934;2023-08-21T01:02:02;10.13;;;7.50;;
5175;SDS011;2607;50.934;6.934;2023-08-21T01:04:27;10.73;;;6.70;;
5175;SDS011;2607;50.934;6.934;2023-08-21T01:06:53;7.93;;;7.13;;
5175;SDS011;2607;50.934;6.934;2023-08-21T01:17:18;7.00;;;6.30;;
5175;SDS011;2607;50.934;6.934;2023-08-21T01:19:46;10.83;;;6.63;;
5175;SDS011;2607;50.934;6.934;2023-08-21T01:22:13;7.57;;;6.80;;
5175;SDS011;2607;50.934;6.934;2023-08-21T01:24:39;10.43;;;6.53;;
5175;SDS011;2607;50.934;6.934;2023-08-21T01:27:05;8.50;;;6.80;;
5175;SDS011;2607;50.934;6.934;2023-08-21T01:29:30;6.97;;;6.33;;
5175;SDS011;2607;50.934;6.934;2023-08-21T01:32:17;7.57;;;6.80;;
5175;SDS011;2607;50.934;6.934;2023-08-21T01:34:51;12.07;;;7.70;;
5175;SDS011;2607;50.934;6.934;2023-08-21T01:37:20;7.90;;;7.20;;
5175;SDS011;2607;50.934;6.934;2023-08-21T01:39:46;9.37;;;7.00;;
5175;SDS011;2607;50.934;6.934;2023-08-21T01:42:11;7.80;;;7.00;;
5175;SDS011;2607;50.934;6.934;2023-08-21T01:44:37;11.80;;;7.20;;
5175;SDS011;2607;50.934;6.934;2023-08-21T01:47:02;7.00;;;6.50;;
5175;SDS011;2607;50.934;6.934;2023-08-21T01:49:28;7.90;;;7.10;;
5175;SDS011;2607;50.934;6.934;2023-08-21T01:51:54;7.73;;;6.80;;
5175;SDS011;2607;50.934;6.934;2023-08-21T01:54:19;8.50;;;6.93;;
5175;SDS011;2607;50.934;6.934;2023-08-21T01:56:45;7.17;;;6.30;;
5175;SDS011;2607;50.934;6.934;2023-08-21T01:59:10;14.63;;;8.80;;
5175;SDS011;2607;50.934;6.934;2023-08-21T02:01:36;8.00;;;7.20;;
5175;SDS011;2607;50.934;6.934;2023-08-21T02:04:02;11.47;;;10.27;;
5175;SDS011;2607;50.934;6.934;2023-08-21T02:06:27;9.20;;;7.60;;
5175;SDS011;2607;50.934;6.934;2023-08-21T02:08:53;8.00;;;7.20;;
5175;SDS011;2607;50.934;6.934;2023-08-21T02:11:18;14.20;;;9.10;;
5175;SDS011;2607;50.934;6.934;2023-08-21T02:13:44;15.07;;;6.70;;
5175;SDS011;2607;50.934;6.934;2023-08-21T02:16:09;7.03;;;6.33;;
5175;SDS011;2607;50.934;6.934;2023-08-21T02:18:35;7.73;;;6.93;;
5175;SDS011;2607;50.934;6.934;2023-08-21T02:21:01;11.90;;;6.83;;
5175;SDS011;2607;50.934;6.934;2023-08-21T02:23:27;9.80;;;6.60;;
5175;SDS011;2607;50.934;6.934;2023-08-21T02:25:53;7.63;;;6.80;;
5175;SDS011;2607;50.934;6.934;2023-08-21T02:28:19;7.43;;;6.60;;
5175;SDS011;2607;50.934;6.934;2023-08-21T02:30:44;7.50;;;6.03;;
5175;SDS011;2607;50.934;6.934;2023-08-21T02:33:10;9.50;;;6.53;;
5175;SDS011;2607;50.934;6.934;2023-08-21T02:35:36;6.90;;;6.30;;
5175;SDS011;2607;50.934;6.934;2023-08-21T02:38:02;10.10;;;6.53;;
5175;SDS011;2607;50.934;6.934;2023-08-21T02:40:28;8.30;;;5.77;;
5175;SDS011;2607;50.934;6.934;2023-08-21T02:42:53;12.27;;;7.27;;
5175;SDS011;2607;50.934;6.934;2023-08-21T02:45:19;8.00;;;5.97;;
5175;SDS011;2607;50.934;6.934;2023-08-21T02:47:44;7.60;;;5.97;;
5175;SDS011;2607;50.934;6.934;2023-08-21T02:50:10;6.80;;;6.00;;
5175;SDS011;2607;50.934;6.934;2023-08-21T02:52:36;9.90;;;7.23;;
5175;SDS011;2607;50.934;6.934;2023-08-21T02:55:02;6.13;;;5.63;;
5175;SDS011;2607;50.934;6.934;2023-08-21T02:57:28;7.47;;;5.50;;
5175;SDS011;2607;50.934;6.934;2023-08-21T02:59:55;10.83;;;5.70;;
5175;SDS011;2607;50.934;6.934;2023-08-21T03:02:20;7.53;;;6.60;;
5175;SDS011;2607;50.934;6.934;2023-08-21T03:04:47;12.33;;;9.80;;
5175;SDS011;2607;50.934;6.934;2023-08-21T03:07:13;8.47;;;5.77;;
5175;SDS011;2607;50.934;6.934;2023-08-21T03:09:39;14.60;;;6.83;;
5175;SDS011;2607;50.934;6.934;2023-08-21T03:12:05;15.10;;;8.77;;
5175;SDS011;2607;50.934;6.934;2023-08-21T03:14:31;9.50;;;6.40;;
5175;SDS011;2607;50.934;6.934;2023-08-21T03:16:57;13.37;;;9.77;;
5175;SDS011;2607;50.934;6.934;2023-08-21T03:19:22;6.60;;;6.00;;
5175;SDS011;2607;50.934;6.934;2023-08-21T03:21:48;7.00;;;6.30;;
5175;SDS011;2607;50.934;6.934;2023-08-21T03:24:14;11.20;;;5.23;;
5175;SDS011;2607;50.934;6.934;2023-08-21T03:26:39;7.53;;;5.37;;
5175;SDS011;2607;50.934;6.934;2023-08-21T03:29:05;8.77;;;7.47;;
5175;SDS011;2607;50.934;6.934;2023-08-21T03:31:30;6.57;;;5.93;;
5175;SDS011;2607;50.934;6.934;2023-08-21T03:33:56;6.73;;;5.80;;
5175;SDS011;2607;50.934;6.934;2023-08-21T03:36:22;18.60;;;11.70;;
5175;SDS011;2607;50.934;6.934;2023-08-21T03:38:56;6.80;;;6.10;;
5175;SDS011;2607;50.934;6.934;2023-08-21T03:41:25;9.60;;;6.30;;
5175;SDS011;2607;50.934;6.934;2023-08-21T03:43:51;5.70;;;4.83;;
5175;SDS011;2607;50.934;6.934;2023-08-21T03:46:16;7.60;;;5.47;;
5175;SDS011;2607;50.934;6.934;2023-08-21T03:48:42;6.00;;;5.43;;
5175;SDS011;2607;50.934;6.934;2023-08-21T03:51:08;7.60;;;5.40;;
5175;SDS011;2607;50.934;6.934;2023-08-21T03:53:33;7.70;;;7.00;;
5175;SDS011;2607;50.934;6.934;2023-08-21T03:55:59;6.40;;;5.50;;
5175;SDS011;2607;50.934;6.934;2023-08-21T03:58:25;8.57;;;5.40;;
5175;SDS011;2607;50.934;6.934;2023-08-21T04:00:51;6.27;;;5.20;;
5175;SDS011;2607;50.934;6.934;2023-08-21T04:03:17;8.23;;;5.80;;
5175;SDS011;2607;50.934;6.934;2023-08-21T04:05:43;8.27;;;6.57;;
5175;SDS011;2607;50.934;6.934;2023-08-21T04:08:08;7.67;;;6.40;;
5175;SDS011;2607;50.934;6.934;2023-08-21T04:10:34;6.57;;;5.93;;
5175;SDS011;2607;50.934;6.934;2023-08-21T04:13:00;11.30;;;5.37;;
5175;SDS011;2607;50.934;6.934;2023-08-21T04:15:25;8.87;;;5.63;;
5175;SDS011;2607;50.934;6.934;2023-08-21T04:17:51;8.93;;;5.87;;
5175;SDS011;2607;50.934;6.934;2023-08-21T04:20:18;7.40;;;5.13;;
5175;SDS011;2607;50.934;6.934;2023-08-21T04:22:45;6.30;;;5.60;;
5175;SDS011;2607;50.934;6.934;2023-08-21T04:25:10;6.53;;;5.90;;
5175;SDS011;2607;50.934;6.934;2023-08-21T04:27:36;6.93;;;5.20;;
5175;SDS011;2607;50.934;6.934;2023-08-21T04:30:02;7.60;;;5.50;;
5175;SDS011;2607;50.934;6.934;2023-08-21T04:32:28;8.33;;;5.90;;
5175;SDS011;2607;50.934;6.934;2023-08-21T04:34:53;7.87;;;5.97;;
5175;SDS011;2607;50.934;6.934;2023-08-21T04:37:19;6.07;;;5.57;;
5175;SDS011;2607;50.934;6.934;2023-08-21T04:39:44;5.50;;;5.10;;
5175;SDS011;2607;50.934;6.934;2023-08-21T04:42:10;5.53;;;5.13;;
5175;SDS011;2607;50.934;6.934;2023-08-21T04:44:36;5.23;;;4.80;;
5175;SDS011;2607;50.934;6.934;2023-08-21T04:47:18;8.60;;;5.40;;
5175;SDS011;2607;50.934;6.934;2023-08-21T04:49:45;7.37;;;4.83;;
5175;SDS011;2607;50.934;6.934;2023-08-21T04:52:10;7.13;;;6.00;;
5175;SDS011;2607;50.934;6.934;2023-08-21T04:54:36;9.93;;;5.73;;
5175;SDS011;2607;50.934;6.934;2023-08-21T04:57:01;10.13;;;5.47;;
5175;SDS011;2607;50.934;6.934;2023-08-21T04:59:28;5.93;;;5.03;;
5175;SDS011;2607;50.934;6.934;2023-08-21T05:01:53;6.80;;;6.20;;
5175;SDS011;2607;50.934;6.934;2023-08-21T05:04:19;6.13;;;5.57;;
5175;SDS011;2607;50.934;6.934;2023-08-21T05:06:44;11.10;;;6.97;;
5175;SDS011;2607;50.934;6.934;2023-08-21T05:09:10;8.00;;;6.57;;
5175;SDS011;2607;50.934;6.934;2023-08-21T05:11:35;7.77;;;5.40;;
5175;SDS011;2607;50.934;6.934;2023-08-21T05:14:01;9.23;;;5.37;;
5175;SDS011;2607;50.934;6.934;2023-08-21T05:16:27;9.77;;;5.67;;
5175;SDS011;2607;50.934;6.934;2023-08-21T05:18:52;5.57;;;5.10;;
5175;SDS011;2607;50.934;6.934;2023-08-21T05:21:18;6.00;;;5.50;;
5175;SDS011;2607;50.934;6.934;2023-08-21T05:23:43;9.60;;;5.53;;
5175;SDS011;2607;50.934;6.934;2023-08-21T05:26:09;7.90;;;5.20;;
5175;SDS011;2607;50.934;6.934;2023-08-21T05:28:34;7.77;;;5.53;;
5175;SDS011;2607;50.934;6.934;2023-08-21T05:31:00;8.47;;;5.07;;
5175;SDS011;2607;50.934;6.934;2023-08-21T05:33:26;8.17;;;5.53;;
5175;SDS011;2607;50.934;6.934;2023-08-21T05:35:51;6.13;;;5.23;;
5175;SDS011;2607;50.934;6.934;2023-08-21T05:38:17;9.03;;;5.30;;
5175;SDS011;2607;50.934;6.934;2023-08-21T05:40:42;8.43;;;5.70;;
5175;SDS011;2607;50.934;6.934;2023-08-21T05:43:08;8.50;;;5.43;;
5175;SDS011;2607;50.934;6.934;2023-08-21T05:45:34;9.63;;;5.80;;
5175;SDS011;2607;50.934;6.934;2023-08-21T05:47:59;5.40;;;4.90;;
5175;SDS011;2607;50.934;6.934;2023-08-21T05:50:25;13.70;;;5.73;;
5175;SDS011;2607;50.934;6.934;2023-08-21T05:52:50;7.50;;;5.60;;
5175;SDS011;2607;50.934;6.934;2023-08-21T05:55:17;8.23;;;5.50;;
5175;SDS011;2607;50.934;6.934;2023-08-21T05:57:43;12.13;;;6.27;;
5175;SDS011;2607;50.934;6.934;2023-08-21T06:00:08;6.70;;;6.03;;
5175;SDS011;2607;50.934;6.934;2023-08-21T06:02:34;8.13;;;5.90;;
5175;SDS011;2607;50.934;6.934;2023-08-21T06:05:00;9.00;;;6.53;;
5175;SDS011;2607;50.934;6.934;2023-08-21T06:07:26;9.37;;;6.80;;
5175;SDS011;2607;50.934;6.934;2023-08-21T06:09:51;12.33;;;6.50;;
5175;SDS011;2607;50.934;6.934;2023-08-21T06:12:18;13.10;;;7.10;;
5175;SDS011;2607;50.934;6.934;2023-08-21T06:14:44;11.10;;;6.77;;
5175;SDS011;2607;50.934;6.934;2023-08-21T06:17:09;9.07;;;5.87;;
5175;SDS011;2607;50.934;6.934;2023-08-21T06:19:35;9.47;;;6.23;;
5175;SDS011;2607;50.934;6.934;2023-08-21T06:22:01;7.63;;;6.70;;
5175;SDS011;2607;50.934;6.934;2023-08-21T06:24:26;8.13;;;5.60;;
5175;SDS011;2607;50.934;6.934;2023-08-21T06:26:52;6.93;;;6.30;;
5175;SDS011;2607;50.934;6.934;2023-08-21T06:29:18;7.70;;;6.83;;
5175;SDS011;2607;50.934;6.934;2023-08-21T06:31:45;10.50;;;7.10;;
5175;SDS011;2607;50.934;6.934;2023-08-21T06:34:11;11.10;;;8.13;;
5175;SDS011;2607;50.934;6.934;2023-08-21T06:36:37;12.37;;;7.10;;
5175;SDS011;2607;50.934;6.934;2023-08-21T06:39:03;15.10;;;8.20;;
5175;SDS011;2607;50.934;6.934;2023-08-21T06:41:28;13.90;;;7.50;;
5175;SDS011;2607;50.934;6.934;2023-08-21T06:43:54;15.63;;;7.50;;
5175;SDS011;2607;50.934;6.934;2023-08-21T06:46:21;7.60;;;7.00;;
5175;SDS011;2607;50.934;6.934;2023-08-21T06:48:46;11.27;;;7.50;;
5175;SDS011;2607;50.934;6.934;2023-08-21T06:51:12;20.27;;;7.17;;
5175;SDS011;2607;50.934;6.934;2023-08-21T06:53:37;11.83;;;7.40;;
5175;SDS011;2607;50.934;6.934;2023-08-21T06:56:03;10.30;;;6.40;;
5175;SDS011;2607;50.934;6.934;2023-08-21T06:58:29;10.03;;;7.13;;
5175;SDS011;2607;50.934;6.934;2023-08-21T07:00:54;10.90;;;6.90;;
5175;SDS011;2607;50.934;6.934;2023-08-21T07:03:20;6.20;;;5.70;;
5175;SDS011;2607;50.934;6.934;2023-08-21T07:05:53;10.63;;;6.97;;
5175;SDS011;2607;50.934;6.934;2023-08-21T07:08:25;7.80;;;6.93;;
5175;SDS011;2607;50.934;6.934;2023-08-21T07:10:51;10.73;;;6.00;;
5175;SDS011;2607;50.934;6.934;2023-08-21T07:13:17;17.47;;;6.40;;
5175;SDS011;2607;50.934;6.934;2023-08-21T07:15:43;12.77;;;6.23;;
5175;SDS011;2607;50.934;6.934;2023-08-21T07:18:09;7.70;;;5.57;;
5175;SDS011;2607;50.934;6.934;2023-08-21T07:20:34;12.23;;;6.67;;
5175;SDS011;2607;50.934;6.934;2023-08-21T07:23:00;10.17;;;7.23;;
5175;SDS011;2607;50.934;6.934;2023-08-21T07:25:26;7.80;;;7.07;;
5175;SDS011;2607;50.934;6.934;2023-08-21T07:27:53;10.67;;;7.00;;
5175;SDS011;2607;50.934;6.934;2023-08-21T07:30:19;6.63;;;6.03;;
5175;SDS011;2607;50.934;6.934;2023-08-21T07:32:46;7.90;;;7.10;;
5175;SDS011;2607;50.934;6.934;2023-08-21T07:35:12;12.60;;;6.53;;
5175;SDS011;2607;50.934;6.934;2023-08-21T07:37:37;7.63;;;6.93;;
5175;SDS011;2607;50.934;6.934;2023-08-21T07:40:06;7.50;;;6.80;;
5175;SDS011;2607;50.934;6.934;2023-08-21T07:42:32;9.90;;;7.50;;
5175;SDS011;2607;50.934;6.934;2023-08-21T07:44:57;8.27;;;7.43;;
5175;SDS011;2607;50.934;6.934;2023-08-21T07:47:23;9.90;;;8.30;;
5175;SDS011;2607;50.934;6.934;2023-08-21T07:49:48;8.37;;;7.33;;
5175;SDS011;2607;50.934;6.934;2023-08-21T07:52:14;9.20;;;8.10;;
5175;SDS011;2607;50.934;6.934;2023-08-21T07:54:41;12.87;;;8.43;;
5175;SDS011;2607;50.934;6.934;2023-08-21T07:57:06;11.43;;;7.97;;
5175;SDS011;2607;50.934;6.934;2023-08-21T07:59:32;9.67;;;7.00;;
5175;SDS011;2607;50.934;6.934;2023-08-21T08:01:58;10.47;;;7.03;;
5175;SDS011;2607;50.934;6.934;2023-08-21T08:04:25;7.53;;;6.83;;
5175;SDS011;2607;50.934;6.934;2023-08-21T08:06:50;9.40;;;8.43;;
5175;SDS011;2607;50.934;6.934;2023-08-21T08:09:16;10.07;;;7.47;;
5175;SDS011;2607;50.934;6.934;2023-08-21T08:11:41;9.20;;;8.30;;
5175;SDS011;2607;50.934;6.934;2023-08-21T08:14:07;11.83;;;8.07;;
5175;SDS011;2607;50.934;6.934;2023-08-21T08:16:33;13.00;;;8.23;;
5175;SDS011;2607;50.934;6.934;2023-08-21T08:18:58;11.77;;;9.33;;
5175;SDS011;2607;50.934;6.934;2023-08-21T08:21:24;9.07;;;7.77;;
5175;SDS011;2607;50.934;6.934;2023-08-21T08:23:49;9.47;;;8.10;;
5175;SDS011;2607;50.934;6.934;2023-08-21T08:26:15;10.27;;;8.57;;
5175;SDS011;2607;50.934;6.934;2023-08-21T08:28:41;9.70;;;6.77;;
5175;SDS011;2607;50.934;6.934;2023-08-21T08:31:13;8.87;;;7.97;;
5175;SDS011;2607;50.934;6.934;2023-08-21T08:33:40;10.63;;;8.03;;
5175;SDS011;2607;50.934;6.934;2023-08-21T08:36:05;9.47;;;8.53;;
5175;SDS011;2607;50.934;6.934;2023-08-21T08:38:31;9.50;;;8.60;;
5175;SDS011;2607;50.934;6.934;2023-08-21T08:40:56;10.90;;;8.93;;
5175;SDS011;2607;50.934;6.934;2023-08-21T08:43:23;13.00;;;9.47;;
5175;SDS011;2607;50.934;6.934;2023-08-21T08:45:51;15.03;;;9.80;;
5175;SDS011;2607;50.934;6.934;2023-08-21T08:48:19;11.13;;;9.43;;
5175;SDS011;2607;50.934;6.934;2023-08-21T08:50:46;11.93;;;8.80;;
5175;SDS011;2607;50.934;6.934;2023-08-21T08:53:14;12.10;;;9.47;;
5175;SDS011;2607;50.934;6.934;2023-08-21T08:55:41;13.07;;;9.17;;
5175;SDS011;2607;50.934;6.934;2023-08-21T08:58:06;14.10;;;12.63;;
5175;SDS011;2607;50.934;6.934;2023-08-21T09:00:32;14.37;;;12.73;;
5175;SDS011;2607;50.934;6.934;2023-08-21T09:02:58;12.57;;;10.37;;
5175;SDS011;2607;50.934;6.934;2023-08-21T09:05:23;18.30;;;10.40;;
5175;SDS011;2607;50.934;6.934;2023-08-21T09:10:44;15.93;;;11.30;;
5175;SDS011;2607;50.934;6.934;2023-08-21T09:13:13;12.73;;;10.87;;
5175;SDS011;2607;50.934;6.934;2023-08-21T09:15:42;16.20;;;9.80;;
5175;SDS011;2607;50.934;6.934;2023-08-21T09:18:09;9.70;;;8.40;;
5175;SDS011;2607;50.934;6.934;2023-08-21T09:20:36;15.90;;;8.97;;
5175;SDS011;2607;50.934;6.934;2023-08-21T09:23:02;11.90;;;8.70;;
5175;SDS011;2607;50.934;6.934;2023-08-21T09:25:33;11.27;;;9.17;;
5175;SDS011;2607;50.934;6.934;2023-08-21T09:27:59;15.90;;;10.10;;
5175;SDS011;2607;50.934;6.934;2023-08-21T09:30:29;13.33;;;10.10;;
5175;SDS011;2607;50.934;6.934;2023-08-21T09:32:58;13.63;;;9.80;;
5175;SDS011;2607;50.934;6.934;2023-08-21T09:35:31;11.53;;;10.00;;
5175;SDS011;2607;50.934;6.934;2023-08-21T09:37:58;12.50;;;9.87;;
5175;SDS011;2607;50.934;6.934;2023-08-21T09:40:24;10.27;;;9.27;;
5175;SDS011;2607;50.934;6.934;2023-08-21T09:42:53;15.43;;;11.33;;
5175;SDS011;2607;50.934;6.934;2023-08-21T09:45:21;11.67;;;9.80;;
5175;SDS011;2607;50.934;6.934;2023-08-21T09:47:47;22.33;;;12.47;;
5175;SDS011;2607;50.934;6.934;2023-08-21T09:50:14;12.47;;;11.27;;
5175;SDS011;2607;50.934;6.934;2023-08-21T09:52:40;13.97;;;11.00;;
5175;SDS011;2607;50.934;6.934;2023-08-21T09:55:08;17.30;;;10.93;;
5175;SDS011;2607;50.934;6.934;2023-08-21T09:57:35;11.87;;;10.53;;
5175;SDS011;2607;50.934;6.934;2023-08-21T10:00:02;15.33;;;10.57;;
5175;SDS011;2607;50.934;6.934;2023-08-21T10:02:40;10.83;;;9.90;;
5175;SDS011;2607;50.934;6.934;2023-08-21T10:05:16;18.50;;;11.97;;
5175;SDS011;2607;50.934;6.934;2023-08-21T10:07:43;14.10;;;10.87;;
5175;SDS011;2607;50.934;6.934;2023-08-21T10:10:12;17.03;;;11.70;;
5175;SDS011;2607;50.934;6.934;2023-08-21T10:12:38;15.00;;;10.47;;
5175;SDS011;2607;50.934;6.934;2023-08-21T10:15:05;11.73;;;9.50;;
5175;SDS011;2607;50.934;6.934;2023-08-21T10:17:32;15.50;;;8.93;;
5175;SDS011;2607;50.934;6.934;2023-08-21T10:20:04;18.30;;;10.00;;
5175;SDS011;2607;50.934;6.934;2023-08-21T10:22:48;14.90;;;10.93;;
5175;SDS011;2607;50.934;6.934;2023-08-21T10:25:15;12.87;;;11.40;;
5175;SDS011;2607;50.934;6.934;2023-08-21T10:27:42;14.70;;;11.27;;
5175;SDS011;2607;50.934;6.934;2023-08-21T10:30:15;23.70;;;14.00;;
5175;SDS011;2607;50.934;6.934;2023-08-21T10:32:47;16.37;;;11.13;;
5175;SDS011;2607;50.934;6.934;2023-08-21T10:35:14;16.10;;;12.73;;
5175;SDS011;2607;50.934;6.934;2023-08-21T10:40:35;15.47;;;12.17;;
5175;SDS011;2607;50.934;6.934;2023-08-21T10:43:02;17.70;;;10.87;;
5175;SDS011;2607;50.934;6.934;2023-08-21T10:45:28;15.70;;;10.53;;
5175;SDS011;2607;50.934;6.934;2023-08-21T10:47:57;14.70;;;11.33;;
5175;SDS011;2607;50.934;6.934;2023-08-21T10:50:24;16.93;;;12.60;;
5175;SDS011;2607;50.934;6.934;2023-08-21T10:52:50;14.83;;;11.47;;
5175;SDS011;2607;50.934;6.934;2023-08-21T10:55:17;18.70;;;12.07;;
5175;SDS011;2607;50.934;6.934;2023-08-21T10:57:43;19.67;;;12.57;;
5175;SDS011;2607;50.934;6.934;2023-08-21T11:00:11;13.07;;;11.63;;
5175;SDS011;2607;50.934;6.934;2023-08-21T11:02:39;14.63;;;12.23;;
5175;SDS011;2607;50.934;6.934;2023-08-21T11:05:06;15.97;;;11.50;;
5175;SDS011;2607;50.934;6.934;2023-08-21T11:07:36;18.70;;;12.80;;
5175;SDS011;2607;50.934;6.934;2023-08-21T11:10:15;18.37;;;10.63;;
5175;SDS011;2607;50.934;6.934;2023-08-21T11:12:52;13.60;;;9.93;;
5175;SDS011;2607;50.934;6.934;2023-08-21T11:15:20;13.60;;;9.73;;
5175;SDS011;2607;50.934;6.934;2023-08-21T11:17:59;11.63;;;9.67;;
5175;SDS011;2607;50.934;6.934;2023-08-21T11:20:29;15.33;;;10.67;;
5175;SDS011;2607;50.934;6.934;2023-08-21T11:23:04;15.77;;;10.87;;
5175;SDS011;2607;50.934;6.934;2023-08-21T11:25:34;16.93;;;11.10;;
5175;SDS011;2607;50.934;6.934;2023-08-21T11:28:04;19.73;;;11.33;;
5175;SDS011;2607;50.934;6.934;2023-08-21T11:30:31;16.57;;;10.20;;
5175;SDS011;2607;50.934;6.934;2023-08-21T11:33:06;12.47;;;9.90;;
5175;SDS011;2607;50.934;6.934;2023-08-21T11:35:36;11.10;;;9.90;;
5175;SDS011;2607;50.934;6.934;2023-08-21T11:38:03;14.83;;;11.03;;
5175;SDS011;2607;50.934;6.934;2023-08-21T11:40:29;14.30;;;11.63;;
5175;SDS011;2607;50.934;6.934;2023-08-21T11:43:04;10.23;;;9.20;;
5175;SDS011;2607;50.934;6.934;2023-08-21T11:45:34;13.60;;;11.17;;
5175;SDS011;2607;50.934;6.934;2023-08-21T11:48:00;17.63;;;10.17;;
5175;SDS011;2607;50.934;6.934;2023-08-21T11:50:25;11.07;;;9.07;;
5175;SDS011;2607;50.934;6.934;2023-08-21T11:52:52;14.47;;;10.40;;
5175;SDS011;2607;50.934;6.934;2023-08-21T11:55:18;13.93;;;8.83;;
5175;SDS011;2607;50.934;6.934;2023-08-21T11:57:50;13.80;;;8.90;;
5175;SDS011;2607;50.934;6.934;2023-08-21T12:00:17;9.83;;;7.50;;
5175;SDS011;2607;50.934;6.934;2023-08-21T12:02:54;10.40;;;7.37;;
5175;SDS011;2607;50.934;6.934;2023-08-21T12:05:25;11.73;;;7.63;;
5175;SDS011;2607;50.934;6.934;2023-08-21T12:07:52;10.80;;;7.23;;
5175;SDS011;2607;50.934;6.934;2023-08-21T12:10:24;7.97;;;6.63;;
5175;SDS011;2607;50.934;6.934;2023-08-21T12:12:51;7.13;;;6.40;;
5175;SDS011;2607;50.934;6.934;2023-08-21T12:15:16;7.90;;;5.80;;
5175;SDS011;2607;50.934;6.934;2023-08-21T12:17:42;8.10;;;5.80;;
5175;SDS011;2607;50.934;6.934;2023-08-21T12:20:08;8.30;;;6.50;;
5175;SDS011;2607;50.934;6.934;2023-08-21T12:22:37;14.70;;;6.90;;
5175;SDS011;2607;50.934;6.934;2023-08-21T12:25:03;9.27;;;7.13;;
5175;SDS011;2607;50.934;6.934;2023-08-21T12:27:30;12.27;;;6.87;;
5175;SDS011;2607;50.934;6.934;2023-08-21T12:29:56;6.47;;;5.87;;
5175;SDS011;2607;50.934;6.934;2023-08-21T12:32:21;8.60;;;5.70;;
5175;SDS011;2607;50.934;6.934;2023-08-21T12:34:47;11.03;;;5.60;;
5175;SDS011;2607;50.934;6.934;2023-08-21T12:37:13;8.20;;;5.90;;
5175;SDS011;2607;50.934;6.934;2023-08-21T12:39:38;14.07;;;5.40;;
5175;SDS011;2607;50.934;6.934;2023-08-21T12:42:04;6.53;;;5.40;;
5175;SDS011;2607;50.934;6.934;2023-08-21T12:44:29;9.30;;;5.40;;
5175;SDS011;2607;50.934;6.934;2023-08-21T12:46:55;7.50;;;5.53;;
5175;SDS011;2607;50.934;6.934;2023-08-21T12:49:21;6.80;;;5.00;;
5175;SDS011;2607;50.934;6.934;2023-08-21T12:51:47;9.10;;;5.20;;
5175;SDS011;2607;50.934;6.934;2023-08-21T12:54:12;5.97;;;4.87;;
5175;SDS011;2607;50.934;6.934;2023-08-21T12:56:38;10.40;;;4.70;;
5175;SDS011;2607;50.934;6.934;2023-08-21T12:59:04;5.43;;;4.30;;
5175;SDS011;2607;50.934;6.934;2023-08-21T13:01:30;4.90;;;4.50;;
5175;SDS011;2607;50.934;6.934;2023-08-21T13:03:56;6.23;;;4.73;;
5175;SDS011;2607;50.934;6.934;2023-08-21T13:06:22;4.00;;;3.70;;
5175;SDS011;2607;50.934;6.934;2023-08-21T13:08:47;4.23;;;3.87;;
5175;SDS011;2607;50.934;6.934;2023-08-21T13:11:13;12.43;;;4.23;;
5175;SDS011;2607;50.934;6.934;2023-08-21T13:13:38;4.17;;;3.87;;
5175;SDS011;2607;50.934;6.934;2023-08-21T13:16:04;5.53;;;4.20;;
5175;SDS011;2607;50.934;6.934;2023-08-21T13:18:29;8.10;;;4.70;;
5175;SDS011;2607;50.934;6.934;2023-08-21T13:20:55;4.77;;;4.30;;
5175;SDS011;2607;50.934;6.934;2023-08-21T13:23:21;12.27;;;9.60;;
5175;SDS011;2607;50.934;6.934;2023-08-21T13:25:47;11.40;;;9.07;;
5175;SDS011;2607;50.934;6.934;2023-08-21T13:28:13;6.47;;;5.70;;
5175;SDS011;2607;50.934;6.934;2023-08-21T13:30:38;7.33;;;5.40;;
5175;SDS011;2607;50.934;6.934;2023-08-21T13:33:04;18.87;;;10.50;;
5175;SDS011;2607;50.934;6.934;2023-08-21T13:35:30;4.73;;;4.33;;
5175;SDS011;2607;50.934;6.934;2023-08-21T13:37:56;6.20;;;4.77;;
5175;SDS011;2607;50.934;6.934;2023-08-21T13:40:23;7.87;;;5.03;;
5175;SDS011;2607;50.934;6.934;2023-08-21T13:42:49;9.73;;;6.20;;
5175;SDS011;2607;50.934;6.934;2023-08-21T13:45:16;7.83;;;4.40;;
5175;SDS011;2607;50.934;6.934;2023-08-21T13:47:43;4.90;;;4.20;;
5175;SDS011;2607;50.934;6.934;2023-08-21T13:50:12;6.27;;;4.33;;
5175;SDS011;2607;50.934;6.934;2023-08-21T13:52:38;7.33;;;4.67;;
5175;SDS011;2607;50.934;6.934;2023-08-21T13:55:05;13.43;;;7.50;;
5175;SDS011;2607;50.934;6.934;2023-08-21T13:57:31;17.73;;;10.83;;
5175;SDS011;2607;50.934;6.934;2023-08-21T13:59:59;26.63;;;18.77;;
5175;SDS011;2607;50.934;6.934;2023-08-21T14:02:25;19.20;;;15.00;;
5175;SDS011;2607;50.934;6.934;2023-08-21T14:04:51;6.40;;;5.20;;
5175;SDS011;2607;50.934;6.934;2023-08-21T14:07:17;9.77;;;4.40;;
5175;SDS011;2607;50.934;6.934;2023-08-21T14:09:42;6.20;;;3.80;;
5175;SDS011;2607;50.934;6.934;2023-08-21T14:12:08;9.60;;;4.43;;
5175;SDS011;2607;50.934;6.934;2023-08-21T14:14:34;8.30;;;5.27;;
5175;SDS011;2607;50.934;6.934;2023-08-21T14:17:00;6.70;;;5.40;;
5175;SDS011;2607;50.934;6.934;2023-08-21T14:19:26;8.80;;;5.00;;
5175;SDS011;2607;50.934;6.934;2023-08-21T14:21:52;4.70;;;3.50;;
5175;SDS011;2607;50.934;6.934;2023-08-21T14:24:18;7.50;;;5.23;;
5175;SDS011;2607;50.934;6.934;2023-08-21T14:26:44;4.47;;;3.70;;
5175;SDS011;2607;50.934;6.934;2023-08-21T14:29:10;8.83;;;5.70;;
5175;SDS011;2607;50.934;6.934;2023-08-21T14:31:36;12.43;;;5.60;;
5175;SDS011;2607;50.934;6.934;2023-08-21T14:34:01;10.00;;;5.10;;
5175;SDS011;2607;50.934;6.934;2023-08-21T14:36:27;5.60;;;4.93;;
5175;SDS011;2607;50.934;6.934;2023-08-21T14:38:53;9.77;;;5.13;;
5175;SDS011;2607;50.934;6.934;2023-08-21T14:41:18;5.57;;;4.50;;
5175;SDS011;2607;50.934;6.934;2023-08-21T14:43:44;10.27;;;7.20;;
5175;SDS011;2607;50.934;6.934;2023-08-21T14:46:09;5.63;;;4.00;;
5175;SDS011;2607;50.934;6.934;2023-08-21T14:48:35;6.23;;;5.00;;
5175;SDS011;2607;50.934;6.934;2023-08-21T14:51:01;9.23;;;3.73;;
5175;SDS011;2607;50.934;6.934;2023-08-21T14:53:28;13.20;;;8.90;;
5175;SDS011;2607;50.934;6.934;2023-08-21T14:55:54;37.27;;;24.43;;
5175;SDS011;2607;50.934;6.934;2023-08-21T14:58:19;21.20;;;12.70;;
5175;SDS011;2607;50.934;6.934;2023-08-21T15:00:45;23.27;;;15.73;;
5175;SDS011;2607;50.934;6.934;2023-08-21T15:03:10;15.53;;;10.80;;
5175;SDS011;2607;50.934;6.934;2023-08-21T15:05:36;6.10;;;4.70;;
5175;SDS011;2607;50.934;6.934;2023-08-21T15:08:02;5.10;;;4.33;;
5175;SDS011;2607;50.934;6.934;2023-08-21T15:10:27;10.80;;;8.40;;
5175;SDS011;2607;50.934;6.934;2023-08-21T15:12:53;6.20;;;4.83;;
5175;SDS011;2607;50.934;6.934;2023-08-21T15:15:19;6.73;;;4.10;;
5175;SDS011;2607;50.934;6.934;2023-08-21T15:17:46;7.60;;;4.30;;